Boardman, Wisconsin
Current Conditions -  °F | °C
As of 4:11 AM on Monday 26 Jan 2015 (Local Time) from K21D Reporting Station
Light Snow Light Snow  
Wind Chill: 16°   Ceiling: 1400
Heat Index: 25°   Visibility: 10mi
Dew Point: 21°   Wind: 8mph
Humidity: 86%   Direction: 170°S
Pressure: 29.79"   Gusts: NA
Location:  44.9743°N, 92.6899°W
Report Text: K21D 261011Z AUTO 17007KT 10SM -SN OVC014 M04/M06 A2979 RMK AO2
Loading
Personal Weather Stations






























Interactive Weather Map New forecast layout! Learn more

10-Day Weather Forecast

Advertisements
Track Severe Weather on mobile